Pagina principală
METAR-TAF:

METAR-TAF

Aeroporturi :

Gilmer Municipal Airport (Fox Stephens Field)

Gilmer, Texas, Statele Unite ale Americii

Latitudine: 32-41-56N, longitudine: 094-56-55W, elevație: 127 m

Observații meteo curente

Raportul a fost făcut în urmă cu 22 de minute, la 04:55 UTC
Vânt calm
Temperatură 21°C
Umiditate 88%
Presiune 1014 hPa
Vizibilitate: 16.1 km
Cer senin

METAR: KJXI 190455Z AUTO 00000KT 10SM CLR 21/19 A2994 RMK AO2 T02100194

Ora: 00:17 (05:17 UTC)


TAF: lipsă

Observații și prognoze meteo pentru peste 4.000 de aeroporturi (rapoarte METAR și TAF).

Stațiile disponibile sunt reprezentate pe hartă prin puncte galbene și roșii.

Țineți indicatorul mouse-ului pe punctul dorit pentru a vedea denumirea stației.

Apoi, faceți clic pentru a vedea observațiile și prognozele meteorologice.

Pentru a schimba harta: Pentru mărire, faceți clic pe butoanele verzi cu cruce neagră; pentru micșorare, pe butonul verde cu o liniuță; pentru hărți învecinate, pe săgețile verzi.


METAR-TAF: